AUA62W LDSP-LOWW
Flight info
| Callsign | AUA62W |
|---|---|
| Flight time | 1h 3m |
| Altitude | 36000 |
| Route | SIRMI DCT RUDIK DCT OBUTI OBUTI2W |
| Aircraft | B738/M-SDE2E3FGHIRWXY/LB1 |
Departure
| Time | 2026-04-30 07:27 |
|---|---|
| Airport | Split Saint Jerome Airport (LDSP) |
Arrival
| Time | 2026-04-30 08:30 |
|---|---|
| Airport | Vienna International Airport (LOWW) |
| Time | Latitude | Longitude | Altitude | Speed | Heading |
|---|---|---|---|---|---|
| 2026-04-30 07:19 | 43.53829 | 16.30052 | 56 ft | 0 kts | 114° |
| 2026-04-30 07:20 | 43.53828 | 16.30053 | 56 ft | 0 kts | 114° |
| 2026-04-30 07:20 | 43.53838 | 16.30026 | 57 ft | 4 kts | 128° |
| 2026-04-30 07:20 | 43.53854 | 16.30017 | 57 ft | 0 kts | 206° |
| 2026-04-30 07:20 | 43.53855 | 16.30018 | 57 ft | 0 kts | 214° |
| 2026-04-30 07:21 | 43.53840 | 16.29980 | 58 ft | 7 kts | 244° |
| 2026-04-30 07:21 | 43.53807 | 16.29902 | 58 ft | 10 kts | 238° |
| 2026-04-30 07:21 | 43.53758 | 16.29806 | 58 ft | 13 kts | 230° |
| 2026-04-30 07:21 | 43.53702 | 16.29706 | 58 ft | 13 kts | 229° |
| 2026-04-30 07:22 | 43.53691 | 16.29507 | 64 ft | 7 kts | 260° |
| 2026-04-30 07:22 | 43.53679 | 16.29436 | 67 ft | 8 kts | 252° |
| 2026-04-30 07:22 | 43.53649 | 16.29365 | 69 ft | 11 kts | 233° |
| 2026-04-30 07:23 | 43.53601 | 16.29273 | 70 ft | 12 kts | 236° |
| 2026-04-30 07:23 | 43.53545 | 16.29175 | 71 ft | 12 kts | 226° |
| 2026-04-30 07:23 | 43.53497 | 16.29103 | 72 ft | 8 kts | 229° |
| 2026-04-30 07:23 | 43.53455 | 16.29023 | 72 ft | 15 kts | 240° |
| 2026-04-30 07:24 | 43.53401 | 16.28907 | 70 ft | 13 kts | 240° |
| 2026-04-30 07:24 | 43.53347 | 16.28809 | 68 ft | 13 kts | 225° |
| 2026-04-30 07:24 | 43.53289 | 16.28726 | 67 ft | 10 kts | 232° |
| 2026-04-30 07:24 | 43.53243 | 16.28638 | 65 ft | 11 kts | 216° |
| 2026-04-30 07:25 | 43.53214 | 16.28609 | 64 ft | 4 kts | 266° |
| 2026-04-30 07:25 | 43.53231 | 16.28590 | 63 ft | 1 kts | 16° |
| 2026-04-30 07:25 | 43.53236 | 16.28597 | 64 ft | 0 kts | 53° |
| 2026-04-30 07:25 | 43.53236 | 16.28596 | 64 ft | 0 kts | 53° |
| 2026-04-30 07:26 | 43.53296 | 16.28709 | 67 ft | 46 kts | 54° |
| 2026-04-30 07:26 | 43.53632 | 16.29322 | 70 ft | 112 kts | 53° |
| 2026-04-30 07:26 | 43.54195 | 16.30382 | 221 ft | 154 kts | 53° |
| 2026-04-30 07:26 | 43.54756 | 16.31739 | 673 ft | 177 kts | 64° |
| 2026-04-30 07:27 | 43.54888 | 16.33489 | 1070 ft | 192 kts | 98° |
| 2026-04-30 07:27 | 43.54288 | 16.35174 | 1549 ft | 212 kts | 121° |
| 2026-04-30 07:27 | 43.53170 | 16.36553 | 1972 ft | 218 kts | 144° |
| 2026-04-30 07:27 | 43.51781 | 16.37493 | 2442 ft | 225 kts | 148° |
| 2026-04-30 07:28 | 43.50406 | 16.38470 | 2893 ft | 225 kts | 146° |
| 2026-04-30 07:28 | 43.49028 | 16.39512 | 3350 ft | 227 kts | 145° |
| 2026-04-30 07:28 | 43.47636 | 16.40514 | 3796 ft | 231 kts | 154° |
| 2026-04-30 07:28 | 43.46028 | 16.40792 | 4234 ft | 241 kts | 191° |
| 2026-04-30 07:29 | 43.44570 | 16.39688 | 4689 ft | 243 kts | 232° |
| 2026-04-30 07:29 | 43.43802 | 16.37710 | 5159 ft | 237 kts | 262° |
| 2026-04-30 07:29 | 43.43731 | 16.35486 | 5630 ft | 231 kts | 281° |
| 2026-04-30 07:29 | 43.44179 | 16.33411 | 6065 ft | 224 kts | 304° |
| 2026-04-30 07:30 | 43.46564 | 16.31063 | 6969 ft | 216 kts | 352° |
| 2026-04-30 07:30 | 43.48072 | 16.30845 | 7436 ft | 218 kts | 353° |
| 2026-04-30 07:30 | 43.49566 | 16.30511 | 7878 ft | 220 kts | 353° |
| 2026-04-30 07:31 | 43.51096 | 16.30417 | 8327 ft | 220 kts | 0° |
| 2026-04-30 07:31 | 43.52626 | 16.30460 | 8775 ft | 222 kts | 360° |
| 2026-04-30 07:31 | 43.54212 | 16.30475 | 9240 ft | 240 kts | 359° |
| 2026-04-30 07:31 | 43.55983 | 16.30466 | 9696 ft | 265 kts | 359° |
| 2026-04-30 07:32 | 43.57852 | 16.30460 | 10140 ft | 272 kts | 359° |
| 2026-04-30 07:32 | 43.59730 | 16.30456 | 10584 ft | 273 kts | 359° |
| 2026-04-30 07:32 | 43.61675 | 16.30453 | 11043 ft | 290 kts | 359° |
| 2026-04-30 07:32 | 43.63783 | 16.30447 | 11500 ft | 313 kts | 359° |
| 2026-04-30 07:33 | 43.65998 | 16.30442 | 12082 ft | 331 kts | 359° |
| 2026-04-30 07:33 | 43.68357 | 16.30440 | 12709 ft | 347 kts | 359° |
| 2026-04-30 07:33 | 43.70805 | 16.30442 | 13337 ft | 353 kts | 359° |
| 2026-04-30 07:33 | 43.73241 | 16.30439 | 13965 ft | 354 kts | 358° |
| 2026-04-30 07:34 | 43.75722 | 16.30442 | 14605 ft | 357 kts | 358° |
| 2026-04-30 07:34 | 43.78228 | 16.30449 | 15241 ft | 362 kts | 358° |
| 2026-04-30 07:34 | 43.80735 | 16.30453 | 15869 ft | 366 kts | 358° |
| 2026-04-30 07:34 | 43.83305 | 16.30456 | 16499 ft | 369 kts | 357° |
| 2026-04-30 07:35 | 43.85865 | 16.30459 | 17128 ft | 373 kts | 356° |
| 2026-04-30 07:35 | 43.88471 | 16.30455 | 17762 ft | 376 kts | 356° |
| 2026-04-30 07:35 | 43.91099 | 16.30448 | 18392 ft | 379 kts | 356° |
| 2026-04-30 07:35 | 43.93738 | 16.30446 | 19037 ft | 383 kts | 355° |
| 2026-04-30 07:36 | 43.96390 | 16.30445 | 19673 ft | 388 kts | 355° |
| 2026-04-30 07:36 | 43.99092 | 16.30437 | 20322 ft | 392 kts | 355° |
| 2026-04-30 07:36 | 44.01820 | 16.30433 | 20967 ft | 396 kts | 355° |
| 2026-04-30 07:36 | 44.04595 | 16.30431 | 21622 ft | 401 kts | 355° |
| 2026-04-30 07:37 | 44.07403 | 16.30424 | 22295 ft | 404 kts | 354° |
| 2026-04-30 07:37 | 44.10177 | 16.30360 | 23039 ft | 406 kts | 354° |
| 2026-04-30 07:37 | 44.13020 | 16.30344 | 23819 ft | 407 kts | 354° |
| 2026-04-30 07:37 | 44.15830 | 16.30377 | 24568 ft | 408 kts | 354° |
| 2026-04-30 07:38 | 44.18657 | 16.30402 | 25338 ft | 407 kts | 354° |
| 2026-04-30 07:38 | 44.21477 | 16.30404 | 26111 ft | 405 kts | 354° |
| 2026-04-30 07:38 | 44.24281 | 16.30390 | 26677 ft | 409 kts | 354° |
| 2026-04-30 07:38 | 44.27156 | 16.30381 | 27161 ft | 414 kts | 354° |
| 2026-04-30 07:39 | 44.30040 | 16.30385 | 27648 ft | 418 kts | 354° |
| 2026-04-30 07:39 | 44.32975 | 16.30386 | 28138 ft | 423 kts | 354° |
| 2026-04-30 07:39 | 44.35906 | 16.30380 | 28625 ft | 426 kts | 354° |
| 2026-04-30 07:39 | 44.38897 | 16.30383 | 29117 ft | 430 kts | 354° |
| 2026-04-30 07:40 | 44.41859 | 16.30383 | 29601 ft | 433 kts | 354° |
| 2026-04-30 07:40 | 44.44886 | 16.30382 | 30086 ft | 435 kts | 354° |
| 2026-04-30 07:40 | 44.47915 | 16.30400 | 30565 ft | 436 kts | 354° |
| 2026-04-30 07:40 | 44.50922 | 16.30411 | 31001 ft | 436 kts | 354° |
| 2026-04-30 07:41 | 44.53981 | 16.30418 | 31436 ft | 434 kts | 354° |
| 2026-04-30 07:41 | 44.56957 | 16.30421 | 31778 ft | 434 kts | 354° |
| 2026-04-30 07:41 | 44.59963 | 16.30423 | 32205 ft | 430 kts | 355° |
| 2026-04-30 07:41 | 44.62951 | 16.30428 | 32770 ft | 426 kts | 354° |
| 2026-04-30 07:42 | 44.65908 | 16.30437 | 33332 ft | 422 kts | 355° |
| 2026-04-30 07:42 | 44.68797 | 16.30441 | 33875 ft | 417 kts | 354° |
| 2026-04-30 07:42 | 44.71699 | 16.30436 | 34398 ft | 411 kts | 355° |
| 2026-04-30 07:42 | 44.74512 | 16.30432 | 34879 ft | 405 kts | 355° |
| 2026-04-30 07:43 | 44.77280 | 16.30436 | 35270 ft | 402 kts | 355° |
| 2026-04-30 07:43 | 44.83035 | 16.30437 | 35312 ft | 419 kts | 355° |
| 2026-04-30 07:44 | 44.88952 | 16.30440 | 35474 ft | 431 kts | 356° |
| 2026-04-30 07:44 | 44.95023 | 16.30445 | 35668 ft | 439 kts | 356° |
| 2026-04-30 07:44 | 44.98086 | 16.30463 | 35778 ft | 437 kts | 356° |
| 2026-04-30 07:45 | 45.01086 | 16.30460 | 35883 ft | 434 kts | 355° |
| 2026-04-30 07:45 | 45.04106 | 16.30403 | 36005 ft | 432 kts | 355° |
| 2026-04-30 07:45 | 45.07099 | 16.30331 | 36321 ft | 434 kts | 355° |
| 2026-04-30 07:45 | 45.10145 | 16.30254 | 36201 ft | 437 kts | 355° |
| 2026-04-30 07:46 | 45.13152 | 16.30189 | 36210 ft | 429 kts | 355° |
| 2026-04-30 07:46 | 45.16114 | 16.30126 | 36218 ft | 418 kts | 355° |
| 2026-04-30 07:46 | 45.18966 | 16.30072 | 36234 ft | 408 kts | 355° |
| 2026-04-30 07:47 | 45.24695 | 16.29937 | 36256 ft | 420 kts | 355° |
| 2026-04-30 07:47 | 45.30584 | 16.29794 | 36253 ft | 423 kts | 355° |
| 2026-04-30 07:48 | 45.36395 | 16.29676 | 36250 ft | 414 kts | 355° |
| 2026-04-30 07:48 | 45.42161 | 16.29550 | 36257 ft | 417 kts | 355° |
| 2026-04-30 07:49 | 45.47962 | 16.29411 | 36257 ft | 419 kts | 356° |
| 2026-04-30 07:49 | 45.53759 | 16.29279 | 36257 ft | 417 kts | 356° |
| 2026-04-30 07:50 | 45.59525 | 16.29153 | 36257 ft | 416 kts | 356° |
| 2026-04-30 07:50 | 45.65321 | 16.29030 | 36261 ft | 417 kts | 356° |
| 2026-04-30 07:51 | 45.71111 | 16.28900 | 36261 ft | 417 kts | 356° |
| 2026-04-30 07:51 | 45.76908 | 16.28767 | 36264 ft | 416 kts | 356° |
| 2026-04-30 07:52 | 45.82703 | 16.28641 | 36263 ft | 417 kts | 356° |
| 2026-04-30 07:52 | 45.88487 | 16.28513 | 36263 ft | 416 kts | 356° |
| 2026-04-30 07:53 | 45.94229 | 16.28381 | 36272 ft | 417 kts | 356° |
| 2026-04-30 07:53 | 46.00037 | 16.28240 | 36264 ft | 417 kts | 356° |
| 2026-04-30 07:54 | 46.05812 | 16.28110 | 36274 ft | 415 kts | 356° |
| 2026-04-30 07:54 | 46.11561 | 16.27986 | 36278 ft | 415 kts | 356° |
| 2026-04-30 07:55 | 46.17349 | 16.27856 | 36275 ft | 416 kts | 357° |
| 2026-04-30 07:55 | 46.23093 | 16.27720 | 36278 ft | 415 kts | 357° |
| 2026-04-30 07:56 | 46.28855 | 16.27598 | 36290 ft | 415 kts | 357° |
| 2026-04-30 07:56 | 46.34643 | 16.27456 | 36297 ft | 414 kts | 356° |
| 2026-04-30 07:57 | 46.40321 | 16.26713 | 36299 ft | 413 kts | 349° |
| 2026-04-30 07:57 | 46.45961 | 16.25408 | 35867 ft | 408 kts | 349° |
| 2026-04-30 07:57 | 46.48747 | 16.24763 | 35404 ft | 400 kts | 350° |
| 2026-04-30 07:58 | 46.51473 | 16.24118 | 34973 ft | 394 kts | 350° |
| 2026-04-30 07:58 | 46.54139 | 16.23493 | 34543 ft | 387 kts | 350° |
| 2026-04-30 07:58 | 46.56738 | 16.22884 | 34106 ft | 381 kts | 350° |
| 2026-04-30 07:58 | 46.59323 | 16.22276 | 33737 ft | 375 kts | 350° |
| 2026-04-30 07:59 | 46.61901 | 16.21658 | 33372 ft | 373 kts | 351° |
| 2026-04-30 07:59 | 46.64472 | 16.21040 | 33001 ft | 378 kts | 351° |
| 2026-04-30 07:59 | 46.67076 | 16.20419 | 32629 ft | 384 kts | 351° |
| 2026-04-30 08:00 | 46.72335 | 16.19160 | 31713 ft | 382 kts | 351° |
| 2026-04-30 08:00 | 46.74935 | 16.18540 | 31235 ft | 380 kts | 352° |
| 2026-04-30 08:00 | 46.77558 | 16.17917 | 30758 ft | 382 kts | 352° |
| 2026-04-30 08:00 | 46.80181 | 16.17291 | 30241 ft | 383 kts | 352° |
| 2026-04-30 08:01 | 46.82777 | 16.16677 | 29725 ft | 384 kts | 352° |
| 2026-04-30 08:01 | 46.85439 | 16.16046 | 29203 ft | 386 kts | 352° |
| 2026-04-30 08:01 | 46.88076 | 16.15415 | 28677 ft | 388 kts | 352° |
| 2026-04-30 08:01 | 46.90725 | 16.14783 | 28137 ft | 381 kts | 352° |
| 2026-04-30 08:02 | 46.95828 | 16.13560 | 27084 ft | 366 kts | 353° |
| 2026-04-30 08:02 | 46.98307 | 16.12963 | 26558 ft | 360 kts | 353° |
| 2026-04-30 08:03 | 47.03150 | 16.11794 | 25498 ft | 348 kts | 353° |
| 2026-04-30 08:03 | 47.07836 | 16.10663 | 24448 ft | 337 kts | 353° |
| 2026-04-30 08:03 | 47.10106 | 16.10110 | 23930 ft | 332 kts | 353° |
| 2026-04-30 08:04 | 47.12384 | 16.09564 | 23410 ft | 328 kts | 353° |
| 2026-04-30 08:04 | 47.14597 | 16.09039 | 22899 ft | 324 kts | 353° |
| 2026-04-30 08:04 | 47.16803 | 16.08510 | 22387 ft | 320 kts | 353° |
| 2026-04-30 08:04 | 47.18967 | 16.07994 | 21880 ft | 316 kts | 353° |
| 2026-04-30 08:05 | 47.21132 | 16.07473 | 21360 ft | 313 kts | 353° |
| 2026-04-30 08:05 | 47.23271 | 16.06949 | 20846 ft | 310 kts | 353° |
| 2026-04-30 08:05 | 47.25393 | 16.06433 | 20330 ft | 307 kts | 353° |
| 2026-04-30 08:05 | 47.27471 | 16.05931 | 19828 ft | 305 kts | 352° |
| 2026-04-30 08:06 | 47.29540 | 16.05431 | 19320 ft | 302 kts | 352° |
| 2026-04-30 08:06 | 47.31612 | 16.04930 | 18807 ft | 300 kts | 352° |
| 2026-04-30 08:06 | 47.33635 | 16.04435 | 18308 ft | 297 kts | 352° |
| 2026-04-30 08:06 | 47.35677 | 16.04064 | 17809 ft | 293 kts | 359° |
| 2026-04-30 08:07 | 47.37689 | 16.04215 | 17369 ft | 288 kts | 10° |
| 2026-04-30 08:07 | 47.39620 | 16.04954 | 16947 ft | 284 kts | 18° |
| 2026-04-30 08:07 | 47.41456 | 16.05873 | 16523 ft | 280 kts | 18° |
| 2026-04-30 08:07 | 47.43283 | 16.06778 | 16091 ft | 277 kts | 18° |
| 2026-04-30 08:08 | 47.45096 | 16.07663 | 15657 ft | 274 kts | 18° |
| 2026-04-30 08:08 | 47.46883 | 16.08540 | 15226 ft | 271 kts | 18° |
| 2026-04-30 08:08 | 47.48659 | 16.09415 | 14793 ft | 268 kts | 18° |
| 2026-04-30 08:08 | 47.50426 | 16.10292 | 14361 ft | 266 kts | 18° |
| 2026-04-30 08:09 | 47.52171 | 16.11161 | 13928 ft | 264 kts | 18° |
| 2026-04-30 08:09 | 47.53885 | 16.12015 | 13499 ft | 262 kts | 18° |
| 2026-04-30 08:09 | 47.55607 | 16.12866 | 13066 ft | 260 kts | 18° |
| 2026-04-30 08:09 | 47.57308 | 16.13707 | 12633 ft | 258 kts | 18° |
| 2026-04-30 08:10 | 47.59018 | 16.14557 | 12197 ft | 257 kts | 18° |
| 2026-04-30 08:10 | 47.60701 | 16.15394 | 11763 ft | 255 kts | 18° |
| 2026-04-30 08:10 | 47.62355 | 16.16216 | 11513 ft | 246 kts | 18° |
| 2026-04-30 08:10 | 47.63909 | 16.16994 | 11612 ft | 224 kts | 19° |
| 2026-04-30 08:11 | 47.65328 | 16.17711 | 11639 ft | 211 kts | 19° |
| 2026-04-30 08:11 | 47.66715 | 16.18408 | 11652 ft | 214 kts | 18° |
| 2026-04-30 08:11 | 47.68123 | 16.19112 | 11644 ft | 214 kts | 19° |
| 2026-04-30 08:11 | 47.69537 | 16.19821 | 11643 ft | 213 kts | 18° |
| 2026-04-30 08:12 | 47.70961 | 16.20532 | 11501 ft | 218 kts | 18° |
| 2026-04-30 08:12 | 47.72400 | 16.21256 | 11115 ft | 223 kts | 19° |
| 2026-04-30 08:12 | 47.73880 | 16.21993 | 10686 ft | 226 kts | 18° |
| 2026-04-30 08:12 | 47.75389 | 16.22746 | 10259 ft | 229 kts | 19° |
| 2026-04-30 08:13 | 47.76827 | 16.23702 | 9842 ft | 232 kts | 35° |
| 2026-04-30 08:13 | 47.77981 | 16.25386 | 9449 ft | 234 kts | 46° |
| 2026-04-30 08:13 | 47.79071 | 16.27195 | 9038 ft | 236 kts | 45° |
| 2026-04-30 08:13 | 47.80191 | 16.28994 | 8619 ft | 238 kts | 45° |
| 2026-04-30 08:14 | 47.81313 | 16.30779 | 8174 ft | 238 kts | 45° |
| 2026-04-30 08:14 | 47.82441 | 16.32572 | 7751 ft | 233 kts | 45° |
| 2026-04-30 08:14 | 47.83529 | 16.34309 | 7345 ft | 229 kts | 45° |
| 2026-04-30 08:14 | 47.84607 | 16.36027 | 6938 ft | 225 kts | 45° |
| 2026-04-30 08:15 | 47.85654 | 16.37703 | 6531 ft | 222 kts | 45° |
| 2026-04-30 08:15 | 47.86689 | 16.39362 | 6124 ft | 220 kts | 45° |
| 2026-04-30 08:15 | 47.87712 | 16.41002 | 6045 ft | 204 kts | 45° |
| 2026-04-30 08:15 | 47.88489 | 16.42697 | 6065 ft | 200 kts | 65° |
| 2026-04-30 08:16 | 47.88874 | 16.44683 | 6083 ft | 203 kts | 72° |
| 2026-04-30 08:16 | 47.89220 | 16.46713 | 6068 ft | 202 kts | 71° |
| 2026-04-30 08:16 | 47.89594 | 16.48730 | 6064 ft | 201 kts | 71° |
| 2026-04-30 08:16 | 47.89768 | 16.50803 | 6062 ft | 206 kts | 91° |
| 2026-04-30 08:17 | 47.89312 | 16.52866 | 6071 ft | 215 kts | 117° |
| 2026-04-30 08:17 | 47.88300 | 16.54507 | 6077 ft | 214 kts | 140° |
| 2026-04-30 08:17 | 47.86988 | 16.55420 | 6017 ft | 207 kts | 160° |
| 2026-04-30 08:17 | 47.85606 | 16.55959 | 5850 ft | 207 kts | 161° |
| 2026-04-30 08:18 | 47.84249 | 16.56507 | 5625 ft | 198 kts | 160° |
| 2026-04-30 08:18 | 47.82964 | 16.57125 | 5363 ft | 188 kts | 143° |
| 2026-04-30 08:18 | 47.82133 | 16.58444 | 5128 ft | 164 kts | 107° |
| 2026-04-30 08:18 | 47.81756 | 16.59988 | 4917 ft | 159 kts | 96° |
| 2026-04-30 08:19 | 47.81773 | 16.61564 | 4681 ft | 150 kts | 66° |
| 2026-04-30 08:19 | 47.82126 | 16.63014 | 4493 ft | 149 kts | 62° |
| 2026-04-30 08:19 | 47.82516 | 16.64444 | 4255 ft | 150 kts | 59° |
| 2026-04-30 08:19 | 47.82933 | 16.65871 | 4028 ft | 148 kts | 54° |
| 2026-04-30 08:20 | 47.83506 | 16.67111 | 3806 ft | 146 kts | 48° |
| 2026-04-30 08:20 | 47.84092 | 16.68333 | 3563 ft | 145 kts | 49° |
| 2026-04-30 08:20 | 47.84857 | 16.69231 | 3293 ft | 145 kts | 14° |
| 2026-04-30 08:20 | 47.85846 | 16.69068 | 3099 ft | 146 kts | 342° |
| 2026-04-30 08:21 | 47.86793 | 16.68540 | 2992 ft | 144 kts | 344° |
| 2026-04-30 08:21 | 47.87739 | 16.68048 | 2997 ft | 141 kts | 345° |
| 2026-04-30 08:21 | 47.88686 | 16.67607 | 3015 ft | 145 kts | 346° |
| 2026-04-30 08:21 | 47.89665 | 16.67183 | 2999 ft | 145 kts | 347° |
| 2026-04-30 08:22 | 47.90636 | 16.66773 | 3001 ft | 145 kts | 347° |
| 2026-04-30 08:22 | 47.91608 | 16.66367 | 3005 ft | 146 kts | 347° |
| 2026-04-30 08:22 | 47.92581 | 16.65961 | 3004 ft | 147 kts | 348° |
| 2026-04-30 08:22 | 47.93567 | 16.65550 | 2997 ft | 146 kts | 347° |
| 2026-04-30 08:23 | 47.94535 | 16.65145 | 2995 ft | 144 kts | 347° |
| 2026-04-30 08:23 | 47.95503 | 16.64740 | 3004 ft | 144 kts | 348° |
| 2026-04-30 08:23 | 47.96476 | 16.64333 | 3014 ft | 146 kts | 348° |
| 2026-04-30 08:23 | 47.97469 | 16.63918 | 2924 ft | 148 kts | 348° |
| 2026-04-30 08:24 | 47.98436 | 16.63510 | 2713 ft | 142 kts | 348° |
| 2026-04-30 08:24 | 47.99380 | 16.63113 | 2570 ft | 142 kts | 347° |
| 2026-04-30 08:24 | 48.00331 | 16.62714 | 2367 ft | 140 kts | 346° |
| 2026-04-30 08:24 | 48.01266 | 16.62324 | 2171 ft | 142 kts | 348° |
| 2026-04-30 08:25 | 48.02220 | 16.61922 | 1973 ft | 143 kts | 348° |
| 2026-04-30 08:25 | 48.03168 | 16.61526 | 1778 ft | 142 kts | 347° |
| 2026-04-30 08:25 | 48.04084 | 16.61138 | 1567 ft | 136 kts | 346° |
| 2026-04-30 08:25 | 48.05006 | 16.60754 | 1416 ft | 141 kts | 346° |
| 2026-04-30 08:26 | 48.05981 | 16.60341 | 1197 ft | 145 kts | 346° |
| 2026-04-30 08:26 | 48.07046 | 16.59892 | 1426 ft | 161 kts | 347° |
| 2026-04-30 08:26 | 48.08028 | 16.59592 | 1415 ft | 130 kts | 1° |
| 2026-04-30 08:26 | 48.08934 | 16.59946 | 1337 ft | 140 kts | 30° |
| 2026-04-30 08:27 | 48.09610 | 16.60981 | 1662 ft | 145 kts | 60° |
| 2026-04-30 08:27 | 48.09740 | 16.62452 | 1766 ft | 152 kts | 97° |
| 2026-04-30 08:27 | 48.09322 | 16.63952 | 1796 ft | 164 kts | 119° |
| 2026-04-30 08:27 | 48.08502 | 16.65162 | 1918 ft | 165 kts | 139° |
| 2026-04-30 08:28 | 48.07451 | 16.65959 | 1844 ft | 179 kts | 162° |
| 2026-04-30 08:28 | 48.06248 | 16.66143 | 2087 ft | 167 kts | 184° |
| 2026-04-30 08:28 | 48.05141 | 16.65534 | 1973 ft | 178 kts | 223° |
| 2026-04-30 08:28 | 48.04468 | 16.64062 | 2029 ft | 170 kts | 257° |
| 2026-04-30 08:29 | 48.04433 | 16.62372 | 2022 ft | 165 kts | 293° |
| 2026-04-30 08:29 | 48.04969 | 16.60916 | 2096 ft | 156 kts | 320° |
| 2026-04-30 08:29 | 48.05899 | 16.60196 | 1783 ft | 154 kts | 353° |
| 2026-04-30 08:29 | 48.06961 | 16.59931 | 1367 ft | 158 kts | 349° |
| 2026-04-30 08:30 | 48.08017 | 16.59506 | 933 ft | 157 kts | 346° |
| 2026-04-30 08:30 | 48.09046 | 16.59055 | 626 ft | 149 kts | 346° |
| 2026-04-30 08:30 | 48.09975 | 16.58691 | 601 ft | 128 kts | 344° |
| 2026-04-30 08:30 | 48.10526 | 16.58441 | 600 ft | 0 kts | 340° |